sensor_id;sensor_type;location;lat;lon;timestamp;temperature;humidity
10419;DHT22;5256;48.728;9.140;2022-07-09T00:01:39;12.00;99.90
10419;DHT22;5256;48.728;9.140;2022-07-09T00:04:04;12.00;99.90
10419;DHT22;5256;48.728;9.140;2022-07-09T00:06:30;12.00;99.90
10419;DHT22;5256;48.728;9.140;2022-07-09T00:08:57;11.90;99.90
10419;DHT22;5256;48.728;9.140;2022-07-09T00:11:23;11.90;99.90
10419;DHT22;5256;48.728;9.140;2022-07-09T00:13:48;11.90;99.90
10419;DHT22;5256;48.728;9.140;2022-07-09T00:16:14;11.90;99.90
10419;DHT22;5256;48.728;9.140;2022-07-09T00:18:39;11.90;99.90
10419;DHT22;5256;48.728;9.140;2022-07-09T00:21:05;11.80;99.90
10419;DHT22;5256;48.728;9.140;2022-07-09T00:23:31;11.80;99.90
10419;DHT22;5256;48.728;9.140;2022-07-09T00:25:57;11.80;99.90
10419;DHT22;5256;48.728;9.140;2022-07-09T00:28:22;11.80;99.90
10419;DHT22;5256;48.728;9.140;2022-07-09T00:30:48;11.70;99.90
10419;DHT22;5256;48.728;9.140;2022-07-09T00:33:13;11.70;99.90
10419;DHT22;5256;48.728;9.140;2022-07-09T00:35:39;11.70;99.90
10419;DHT22;5256;48.728;9.140;2022-07-09T00:38:04;11.70;99.90
10419;DHT22;5256;48.728;9.140;2022-07-09T00:40:30;11.70;99.90
10419;DHT22;5256;48.728;9.140;2022-07-09T00:42:55;11.70;99.90
10419;DHT22;5256;48.728;9.140;2022-07-09T00:45:21;11.60;99.90
10419;DHT22;5256;48.728;9.140;2022-07-09T00:47:46;11.60;99.90
10419;DHT22;5256;48.728;9.140;2022-07-09T00:50:12;11.60;99.90
10419;DHT22;5256;48.728;9.140;2022-07-09T00:52:38;11.50;99.90
10419;DHT22;5256;48.728;9.140;2022-07-09T00:55:05;11.50;99.90
10419;DHT22;5256;48.728;9.140;2022-07-09T00:57:33;11.40;99.90
10419;DHT22;5256;48.728;9.140;2022-07-09T00:59:59;11.40;99.90
10419;DHT22;5256;48.728;9.140;2022-07-09T01:02:25;11.30;99.90
10419;DHT22;5256;48.728;9.140;2022-07-09T01:04:51;11.30;99.90
10419;DHT22;5256;48.728;9.140;2022-07-09T01:07:17;11.30;99.90
10419;DHT22;5256;48.728;9.140;2022-07-09T01:09:42;11.30;99.90
10419;DHT22;5256;48.728;9.140;2022-07-09T01:12:08;11.30;99.90
10419;DHT22;5256;48.728;9.140;2022-07-09T01:14:34;11.20;99.90
10419;DHT22;5256;48.728;9.140;2022-07-09T01:17:01;11.30;99.90
10419;DHT22;5256;48.728;9.140;2022-07-09T01:19:28;11.30;99.90
10419;DHT22;5256;48.728;9.140;2022-07-09T01:21:54;11.30;99.90
10419;DHT22;5256;48.728;9.140;2022-07-09T01:24:20;11.20;99.90
10419;DHT22;5256;48.728;9.140;2022-07-09T01:26:47;11.10;99.90
10419;DHT22;5256;48.728;9.140;2022-07-09T01:29:13;11.10;99.90
10419;DHT22;5256;48.728;9.140;2022-07-09T01:31:38;11.10;99.90
10419;DHT22;5256;48.728;9.140;2022-07-09T01:34:04;11.00;99.90
10419;DHT22;5256;48.728;9.140;2022-07-09T01:36:30;11.00;99.90
10419;DHT22;5256;48.728;9.140;2022-07-09T01:38:55;11.00;99.90
10419;DHT22;5256;48.728;9.140;2022-07-09T01:41:21;11.00;99.90
10419;DHT22;5256;48.728;9.140;2022-07-09T01:43:46;10.90;99.90
10419;DHT22;5256;48.728;9.140;2022-07-09T01:46:12;10.90;99.90
10419;DHT22;5256;48.728;9.140;2022-07-09T01:48:37;10.90;99.90
10419;DHT22;5256;48.728;9.140;2022-07-09T01:51:11;11.00;99.90
10419;DHT22;5256;48.728;9.140;2022-07-09T01:53:37;11.00;99.90
10419;DHT22;5256;48.728;9.140;2022-07-09T01:56:06;11.00;99.90
10419;DHT22;5256;48.728;9.140;2022-07-09T01:58:33;10.90;99.90
10419;DHT22;5256;48.728;9.140;2022-07-09T02:00:58;10.90;99.90
10419;DHT22;5256;48.728;9.140;2022-07-09T02:03:24;10.90;99.90
10419;DHT22;5256;48.728;9.140;2022-07-09T02:05:49;10.80;99.90
10419;DHT22;5256;48.728;9.140;2022-07-09T02:08:15;10.90;99.90
10419;DHT22;5256;48.728;9.140;2022-07-09T02:10:41;10.90;99.90
10419;DHT22;5256;48.728;9.140;2022-07-09T02:13:06;10.90;99.90
10419;DHT22;5256;48.728;9.140;2022-07-09T02:15:32;10.80;99.90
10419;DHT22;5256;48.728;9.140;2022-07-09T02:17:58;10.80;99.90
10419;DHT22;5256;48.728;9.140;2022-07-09T02:20:24;10.80;99.90
10419;DHT22;5256;48.728;9.140;2022-07-09T02:22:50;10.80;99.90
10419;DHT22;5256;48.728;9.140;2022-07-09T02:25:16;10.80;99.90
10419;DHT22;5256;48.728;9.140;2022-07-09T02:27:41;10.80;99.90
10419;DHT22;5256;48.728;9.140;2022-07-09T02:30:07;10.80;99.90
10419;DHT22;5256;48.728;9.140;2022-07-09T02:32:33;10.80;99.90
10419;DHT22;5256;48.728;9.140;2022-07-09T02:34:58;10.70;99.90
10419;DHT22;5256;48.728;9.140;2022-07-09T02:37:24;10.70;99.90
10419;DHT22;5256;48.728;9.140;2022-07-09T02:39:50;10.70;99.90
10419;DHT22;5256;48.728;9.140;2022-07-09T02:42:15;10.70;99.90
10419;DHT22;5256;48.728;9.140;2022-07-09T02:44:41;10.70;99.90
10419;DHT22;5256;48.728;9.140;2022-07-09T02:47:09;10.70;99.90
10419;DHT22;5256;48.728;9.140;2022-07-09T02:49:34;10.70;99.90
10419;DHT22;5256;48.728;9.140;2022-07-09T02:52:00;10.60;99.90
10419;DHT22;5256;48.728;9.140;2022-07-09T02:54:27;10.60;99.90
10419;DHT22;5256;48.728;9.140;2022-07-09T02:56:53;10.50;99.90
10419;DHT22;5256;48.728;9.140;2022-07-09T02:59:18;10.60;99.90
10419;DHT22;5256;48.728;9.140;2022-07-09T03:01:44;10.60;99.90
10419;DHT22;5256;48.728;9.140;2022-07-09T03:04:10;10.60;99.90
10419;DHT22;5256;48.728;9.140;2022-07-09T03:06:36;10.60;99.90
10419;DHT22;5256;48.728;9.140;2022-07-09T03:09:02;10.60;99.90
10419;DHT22;5256;48.728;9.140;2022-07-09T03:11:28;10.60;99.90
10419;DHT22;5256;48.728;9.140;2022-07-09T03:13:54;10.60;99.90
10419;DHT22;5256;48.728;9.140;2022-07-09T03:16:20;10.60;99.90
10419;DHT22;5256;48.728;9.140;2022-07-09T03:18:45;10.70;99.90
10419;DHT22;5256;48.728;9.140;2022-07-09T03:21:11;10.80;99.90
10419;DHT22;5256;48.728;9.140;2022-07-09T03:23:37;10.80;99.90
10419;DHT22;5256;48.728;9.140;2022-07-09T03:26:04;10.80;99.90
10419;DHT22;5256;48.728;9.140;2022-07-09T03:28:30;10.80;99.90
10419;DHT22;5256;48.728;9.140;2022-07-09T03:30:55;10.80;99.90
10419;DHT22;5256;48.728;9.140;2022-07-09T03:33:21;10.80;99.90
10419;DHT22;5256;48.728;9.140;2022-07-09T03:35:47;10.70;99.90
10419;DHT22;5256;48.728;9.140;2022-07-09T03:38:12;10.70;99.90
10419;DHT22;5256;48.728;9.140;2022-07-09T03:40:38;10.70;99.90
10419;DHT22;5256;48.728;9.140;2022-07-09T03:43:03;10.60;99.90
10419;DHT22;5256;48.728;9.140;2022-07-09T03:45:29;10.60;99.90
10419;DHT22;5256;48.728;9.140;2022-07-09T03:47:54;10.60;99.90
10419;DHT22;5256;48.728;9.140;2022-07-09T03:50:20;10.60;99.90
10419;DHT22;5256;48.728;9.140;2022-07-09T03:52:46;10.60;99.90
10419;DHT22;5256;48.728;9.140;2022-07-09T03:55:11;10.60;99.90
10419;DHT22;5256;48.728;9.140;2022-07-09T03:57:37;10.70;99.90
10419;DHT22;5256;48.728;9.140;2022-07-09T04:00:05;10.70;99.90
10419;DHT22;5256;48.728;9.140;2022-07-09T04:02:30;10.80;99.90
10419;DHT22;5256;48.728;9.140;2022-07-09T04:04:56;10.80;99.90
10419;DHT22;5256;48.728;9.140;2022-07-09T04:07:22;10.90;99.90
10419;DHT22;5256;48.728;9.140;2022-07-09T04:09:48;11.00;99.90
10419;DHT22;5256;48.728;9.140;2022-07-09T04:12:14;11.10;99.90
10419;DHT22;5256;48.728;9.140;2022-07-09T04:14:39;11.30;99.90
10419;DHT22;5256;48.728;9.140;2022-07-09T04:17:05;11.70;99.90
10419;DHT22;5256;48.728;9.140;2022-07-09T04:19:31;12.10;99.90
10419;DHT22;5256;48.728;9.140;2022-07-09T04:21:57;12.60;99.90
10419;DHT22;5256;48.728;9.140;2022-07-09T04:24:22;13.00;99.90
10419;DHT22;5256;48.728;9.140;2022-07-09T04:26:48;13.40;99.90
10419;DHT22;5256;48.728;9.140;2022-07-09T04:29:13;13.50;99.90
10419;DHT22;5256;48.728;9.140;2022-07-09T04:31:39;13.70;99.90
10419;DHT22;5256;48.728;9.140;2022-07-09T04:34:05;13.60;99.90
10419;DHT22;5256;48.728;9.140;2022-07-09T04:36:30;13.50;99.90
10419;DHT22;5256;48.728;9.140;2022-07-09T04:38:56;13.40;99.90
10419;DHT22;5256;48.728;9.140;2022-07-09T04:41:22;13.40;99.90
10419;DHT22;5256;48.728;9.140;2022-07-09T04:43:48;13.40;99.90
10419;DHT22;5256;48.728;9.140;2022-07-09T04:46:13;13.30;99.90
10419;DHT22;5256;48.728;9.140;2022-07-09T04:48:41;13.20;99.90
10419;DHT22;5256;48.728;9.140;2022-07-09T04:51:07;13.20;99.90
10419;DHT22;5256;48.728;9.140;2022-07-09T04:53:32;13.40;99.90
10419;DHT22;5256;48.728;9.140;2022-07-09T04:55:58;13.40;99.90
10419;DHT22;5256;48.728;9.140;2022-07-09T04:58:23;13.60;99.90
10419;DHT22;5256;48.728;9.140;2022-07-09T05:00:49;13.80;99.90
10419;DHT22;5256;48.728;9.140;2022-07-09T05:03:15;14.00;99.90
10419;DHT22;5256;48.728;9.140;2022-07-09T05:05:40;14.60;99.90
10419;DHT22;5256;48.728;9.140;2022-07-09T05:08:06;15.20;99.90
10419;DHT22;5256;48.728;9.140;2022-07-09T05:10:32;15.80;99.90
10419;DHT22;5256;48.728;9.140;2022-07-09T05:12:58;16.20;99.90
10419;DHT22;5256;48.728;9.140;2022-07-09T05:15:23;16.70;99.90
10419;DHT22;5256;48.728;9.140;2022-07-09T05:17:49;17.10;99.90
10419;DHT22;5256;48.728;9.140;2022-07-09T05:20:14;17.40;99.90
10419;DHT22;5256;48.728;9.140;2022-07-09T05:22:40;17.90;99.90
10419;DHT22;5256;48.728;9.140;2022-07-09T05:25:06;18.60;99.90
10419;DHT22;5256;48.728;9.140;2022-07-09T05:27:31;18.80;99.90
10419;DHT22;5256;48.728;9.140;2022-07-09T05:29:57;19.10;99.90
10419;DHT22;5256;48.728;9.140;2022-07-09T05:32:24;19.40;99.90
10419;DHT22;5256;48.728;9.140;2022-07-09T05:34:49;19.30;99.90
10419;DHT22;5256;48.728;9.140;2022-07-09T05:37:15;19.50;99.90
10419;DHT22;5256;48.728;9.140;2022-07-09T05:39:40;19.70;99.90
10419;DHT22;5256;48.728;9.140;2022-07-09T05:42:06;19.70;99.90
10419;DHT22;5256;48.728;9.140;2022-07-09T05:44:32;20.00;99.90
10419;DHT22;5256;48.728;9.140;2022-07-09T05:46:57;20.70;99.90
10419;DHT22;5256;48.728;9.140;2022-07-09T05:49:23;21.10;99.90
10419;DHT22;5256;48.728;9.140;2022-07-09T05:51:49;21.10;99.50
10419;DHT22;5256;48.728;9.140;2022-07-09T05:54:14;21.10;99.10
10419;DHT22;5256;48.728;9.140;2022-07-09T05:56:40;21.20;98.90
10419;DHT22;5256;48.728;9.140;2022-07-09T05:59:06;21.40;99.00
10419;DHT22;5256;48.728;9.140;2022-07-09T06:01:32;21.60;98.90
10419;DHT22;5256;48.728;9.140;2022-07-09T06:03:58;21.60;98.10
10419;DHT22;5256;48.728;9.140;2022-07-09T06:06:24;21.60;98.20
10419;DHT22;5256;48.728;9.140;2022-07-09T06:08:49;21.90;98.20
10419;DHT22;5256;48.728;9.140;2022-07-09T06:11:15;22.00;98.30
10419;DHT22;5256;48.728;9.140;2022-07-09T06:13:41;22.50;97.90
10419;DHT22;5256;48.728;9.140;2022-07-09T06:16:07;22.70;97.80
10419;DHT22;5256;48.728;9.140;2022-07-09T06:18:32;22.80;97.10
10419;DHT22;5256;48.728;9.140;2022-07-09T06:20:58;22.80;97.10
10419;DHT22;5256;48.728;9.140;2022-07-09T06:23:23;23.10;97.00
10419;DHT22;5256;48.728;9.140;2022-07-09T06:25:49;23.30;96.90
10419;DHT22;5256;48.728;9.140;2022-07-09T06:31:27;23.50;95.90
10419;DHT22;5256;48.728;9.140;2022-07-09T06:33:53;23.70;95.60
10419;DHT22;5256;48.728;9.140;2022-07-09T06:36:18;24.10;95.80
10419;DHT22;5256;48.728;9.140;2022-07-09T06:38:44;24.50;94.60
10419;DHT22;5256;48.728;9.140;2022-07-09T06:41:28;24.50;94.20
10419;DHT22;5256;48.728;9.140;2022-07-09T06:43:54;24.50;94.20
10419;DHT22;5256;48.728;9.140;2022-07-09T06:46:19;24.20;94.40
10419;DHT22;5256;48.728;9.140;2022-07-09T06:48:45;23.90;94.70
10419;DHT22;5256;48.728;9.140;2022-07-09T06:51:10;23.40;95.40
10419;DHT22;5256;48.728;9.140;2022-07-09T06:53:36;23.30;95.40
10419;DHT22;5256;48.728;9.140;2022-07-09T06:56:08;23.70;95.30
10419;DHT22;5256;48.728;9.140;2022-07-09T06:58:34;23.90;94.80
10419;DHT22;5256;48.728;9.140;2022-07-09T07:00:59;23.80;94.60
10419;DHT22;5256;48.728;9.140;2022-07-09T07:03:25;23.60;95.00
10419;DHT22;5256;48.728;9.140;2022-07-09T07:05:50;23.40;94.70
10419;DHT22;5256;48.728;9.140;2022-07-09T07:08:16;23.40;95.10
10419;DHT22;5256;48.728;9.140;2022-07-09T07:10:43;23.20;95.50
10419;DHT22;5256;48.728;9.140;2022-07-09T07:13:09;23.90;95.70
10419;DHT22;5256;48.728;9.140;2022-07-09T07:15:36;24.10;95.50
10419;DHT22;5256;48.728;9.140;2022-07-09T07:18:02;24.80;95.30
10419;DHT22;5256;48.728;9.140;2022-07-09T07:20:27;25.50;93.60
10419;DHT22;5256;48.728;9.140;2022-07-09T07:22:53;25.10;94.00
10419;DHT22;5256;48.728;9.140;2022-07-09T07:25:19;25.20;93.80
10419;DHT22;5256;48.728;9.140;2022-07-09T07:27:44;25.90;93.20
10419;DHT22;5256;48.728;9.140;2022-07-09T07:30:10;26.40;92.90
10419;DHT22;5256;48.728;9.140;2022-07-09T07:32:35;26.10;91.30
10419;DHT22;5256;48.728;9.140;2022-07-09T07:35:01;26.20;91.50
10419;DHT22;5256;48.728;9.140;2022-07-09T07:37:28;25.30;90.20
10419;DHT22;5256;48.728;9.140;2022-07-09T07:39:54;25.70;91.10
10419;DHT22;5256;48.728;9.140;2022-07-09T07:42:19;26.20;91.40
10419;DHT22;5256;48.728;9.140;2022-07-09T07:44:45;26.40;91.10
10419;DHT22;5256;48.728;9.140;2022-07-09T07:47:11;26.70;90.60
10419;DHT22;5256;48.728;9.140;2022-07-09T07:49:36;26.80;90.70
10419;DHT22;5256;48.728;9.140;2022-07-09T07:52:02;26.90;90.20
10419;DHT22;5256;48.728;9.140;2022-07-09T07:54:28;27.00;90.40
10419;DHT22;5256;48.728;9.140;2022-07-09T07:56:54;26.90;89.90
10419;DHT22;5256;48.728;9.140;2022-07-09T07:59:19;27.10;89.40
10419;DHT22;5256;48.728;9.140;2022-07-09T08:01:46;27.70;86.00
10419;DHT22;5256;48.728;9.140;2022-07-09T08:04:12;27.80;84.00
10419;DHT22;5256;48.728;9.140;2022-07-09T08:06:37;27.80;83.50
10419;DHT22;5256;48.728;9.140;2022-07-09T08:09:03;27.80;83.70
10419;DHT22;5256;48.728;9.140;2022-07-09T08:11:29;28.00;85.00
10419;DHT22;5256;48.728;9.140;2022-07-09T08:13:54;27.90;83.80
10419;DHT22;5256;48.728;9.140;2022-07-09T08:16:20;28.10;84.10
10419;DHT22;5256;48.728;9.140;2022-07-09T08:18:46;27.80;84.10
10419;DHT22;5256;48.728;9.140;2022-07-09T08:21:12;28.10;84.50
10419;DHT22;5256;48.728;9.140;2022-07-09T08:23:38;28.70;84.30
10419;DHT22;5256;48.728;9.140;2022-07-09T08:26:26;29.00;82.50
10419;DHT22;5256;48.728;9.140;2022-07-09T08:28:54;29.30;81.70
10419;DHT22;5256;48.728;9.140;2022-07-09T08:31:20;29.20;81.70
10419;DHT22;5256;48.728;9.140;2022-07-09T08:33:46;28.90;81.40
10419;DHT22;5256;48.728;9.140;2022-07-09T08:36:12;28.20;81.90
10419;DHT22;5256;48.728;9.140;2022-07-09T08:38:38;27.20;83.30
10419;DHT22;5256;48.728;9.140;2022-07-09T08:41:05;27.00;83.40
10419;DHT22;5256;48.728;9.140;2022-07-09T08:43:36;27.10;84.80
10419;DHT22;5256;48.728;9.140;2022-07-09T08:46:02;27.50;85.60
10419;DHT22;5256;48.728;9.140;2022-07-09T08:48:28;28.00;84.90
10419;DHT22;5256;48.728;9.140;2022-07-09T08:50:55;28.40;82.70
10419;DHT22;5256;48.728;9.140;2022-07-09T08:53:23;28.80;82.70
10419;DHT22;5256;48.728;9.140;2022-07-09T08:55:50;28.90;83.30
10419;DHT22;5256;48.728;9.140;2022-07-09T08:58:16;29.60;81.40
10419;DHT22;5256;48.728;9.140;2022-07-09T09:00:41;29.60;80.40
10419;DHT22;5256;48.728;9.140;2022-07-09T09:03:07;30.10;80.70
10419;DHT22;5256;48.728;9.140;2022-07-09T09:05:33;30.00;78.20
10419;DHT22;5256;48.728;9.140;2022-07-09T09:07:59;30.00;78.60
10419;DHT22;5256;48.728;9.140;2022-07-09T09:10:26;29.70;78.80
10419;DHT22;5256;48.728;9.140;2022-07-09T09:13:00;30.10;79.90
10419;DHT22;5256;48.728;9.140;2022-07-09T09:15:27;30.90;77.30
10419;DHT22;5256;48.728;9.140;2022-07-09T09:17:53;31.20;77.00
10419;DHT22;5256;48.728;9.140;2022-07-09T09:20:19;31.50;76.70
10419;DHT22;5256;48.728;9.140;2022-07-09T09:22:53;30.90;77.80
10419;DHT22;5256;48.728;9.140;2022-07-09T09:25:24;30.50;76.50
10419;DHT22;5256;48.728;9.140;2022-07-09T09:27:51;29.60;77.80
10419;DHT22;5256;48.728;9.140;2022-07-09T09:30:17;29.20;77.90
10419;DHT22;5256;48.728;9.140;2022-07-09T09:32:43;28.70;78.50
10419;DHT22;5256;48.728;9.140;2022-07-09T09:35:08;28.50;79.80
10419;DHT22;5256;48.728;9.140;2022-07-09T09:37:34;28.30;79.20
10419;DHT22;5256;48.728;9.140;2022-07-09T09:40:10;28.10;79.80
10419;DHT22;5256;48.728;9.140;2022-07-09T09:42:40;28.00;79.70
10419;DHT22;5256;48.728;9.140;2022-07-09T09:45:08;27.60;80.40
10419;DHT22;5256;48.728;9.140;2022-07-09T09:47:34;28.10;77.20
10419;DHT22;5256;48.728;9.140;2022-07-09T09:50:00;28.60;76.80
10419;DHT22;5256;48.728;9.140;2022-07-09T09:52:26;29.00;77.00
10419;DHT22;5256;48.728;9.140;2022-07-09T09:54:52;29.10;78.00
10419;DHT22;5256;48.728;9.140;2022-07-09T09:57:21;28.40;76.80
10419;DHT22;5256;48.728;9.140;2022-07-09T09:59:50;27.50;77.10
10419;DHT22;5256;48.728;9.140;2022-07-09T10:02:18;26.90;78.60
10419;DHT22;5256;48.728;9.140;2022-07-09T10:04:44;26.50;80.90
10419;DHT22;5256;48.728;9.140;2022-07-09T10:07:11;26.20;81.10
10419;DHT22;5256;48.728;9.140;2022-07-09T10:09:37;25.70;81.50
10419;DHT22;5256;48.728;9.140;2022-07-09T10:12:03;25.60;82.50
10419;DHT22;5256;48.728;9.140;2022-07-09T10:14:31;26.10;82.70
10419;DHT22;5256;48.728;9.140;2022-07-09T10:17:15;27.20;81.50
10419;DHT22;5256;48.728;9.140;2022-07-09T10:25:37;27.30;79.10
10419;DHT22;5256;48.728;9.140;2022-07-09T10:28:15;27.30;79.00
10419;DHT22;5256;48.728;9.140;2022-07-09T10:30:40;26.60;79.70
10419;DHT22;5256;48.728;9.140;2022-07-09T10:33:08;26.40;80.10
10419;DHT22;5256;48.728;9.140;2022-07-09T10:35:45;26.10;80.70
10419;DHT22;5256;48.728;9.140;2022-07-09T10:38:12;26.10;81.10
10419;DHT22;5256;48.728;9.140;2022-07-09T10:40:43;26.20;81.40
10419;DHT22;5256;48.728;9.140;2022-07-09T10:43:10;27.00;78.40
10419;DHT22;5256;48.728;9.140;2022-07-09T10:45:45;27.30;76.50
10419;DHT22;5256;48.728;9.140;2022-07-09T10:48:15;28.00;75.50
10419;DHT22;5256;48.728;9.140;2022-07-09T10:50:45;28.70;75.00
10419;DHT22;5256;48.728;9.140;2022-07-09T10:53:14;29.70;73.70
10419;DHT22;5256;48.728;9.140;2022-07-09T10:55:43;30.50;72.10
10419;DHT22;5256;48.728;9.140;2022-07-09T10:58:20;30.80;69.70
10419;DHT22;5256;48.728;9.140;2022-07-09T11:00:58;30.10;71.60
10419;DHT22;5256;48.728;9.140;2022-07-09T11:03:28;29.20;73.80
10419;DHT22;5256;48.728;9.140;2022-07-09T11:05:55;28.60;73.60
10419;DHT22;5256;48.728;9.140;2022-07-09T11:08:20;27.80;73.70
10419;DHT22;5256;48.728;9.140;2022-07-09T11:10:46;27.50;75.50
10419;DHT22;5256;48.728;9.140;2022-07-09T11:13:12;27.70;76.20
10419;DHT22;5256;48.728;9.140;2022-07-09T11:15:38;28.30;76.10
10419;DHT22;5256;48.728;9.140;2022-07-09T11:18:12;28.30;74.40
10419;DHT22;5256;48.728;9.140;2022-07-09T11:20:43;27.90;75.90
10419;DHT22;5256;48.728;9.140;2022-07-09T11:23:13;27.30;75.40
10419;DHT22;5256;48.728;9.140;2022-07-09T11:25:39;27.20;76.70
10419;DHT22;5256;48.728;9.140;2022-07-09T11:28:05;27.00;77.00
10419;DHT22;5256;48.728;9.140;2022-07-09T11:30:31;26.90;77.10
10419;DHT22;5256;48.728;9.140;2022-07-09T11:32:58;26.60;78.80
10419;DHT22;5256;48.728;9.140;2022-07-09T11:37:58;26.20;81.20
10419;DHT22;5256;48.728;9.140;2022-07-09T11:40:24;26.10;80.90
10419;DHT22;5256;48.728;9.140;2022-07-09T11:42:50;26.10;81.60
10419;DHT22;5256;48.728;9.140;2022-07-09T11:45:21;25.90;82.60
10419;DHT22;5256;48.728;9.140;2022-07-09T11:47:46;25.70;83.60
10419;DHT22;5256;48.728;9.140;2022-07-09T11:50:14;25.80;82.90
10419;DHT22;5256;48.728;9.140;2022-07-09T11:52:45;25.70;83.00
10419;DHT22;5256;48.728;9.140;2022-07-09T11:55:13;25.80;83.40
10419;DHT22;5256;48.728;9.140;2022-07-09T11:57:49;25.90;82.80
10419;DHT22;5256;48.728;9.140;2022-07-09T12:00:27;26.20;83.30
10419;DHT22;5256;48.728;9.140;2022-07-09T12:02:54;26.50;82.60
10419;DHT22;5256;48.728;9.140;2022-07-09T12:05:32;26.70;81.10
10419;DHT22;5256;48.728;9.140;2022-07-09T12:08:00;26.70;81.40
10419;DHT22;5256;48.728;9.140;2022-07-09T12:10:31;26.90;80.40
10419;DHT22;5256;48.728;9.140;2022-07-09T12:12:58;26.90;79.90
10419;DHT22;5256;48.728;9.140;2022-07-09T12:15:24;26.80;81.20
10419;DHT22;5256;48.728;9.140;2022-07-09T12:17:54;26.70;80.60
10419;DHT22;5256;48.728;9.140;2022-07-09T12:20:24;26.80;80.10
10419;DHT22;5256;48.728;9.140;2022-07-09T12:22:51;26.80;81.40
10419;DHT22;5256;48.728;9.140;2022-07-09T12:25:18;27.10;80.90
10419;DHT22;5256;48.728;9.140;2022-07-09T12:27:44;26.90;80.30
10419;DHT22;5256;48.728;9.140;2022-07-09T12:30:10;26.30;81.00
10419;DHT22;5256;48.728;9.140;2022-07-09T12:32:36;26.60;81.50
10419;DHT22;5256;48.728;9.140;2022-07-09T12:35:03;27.00;80.50
10419;DHT22;5256;48.728;9.140;2022-07-09T12:37:28;27.20;81.00
10419;DHT22;5256;48.728;9.140;2022-07-09T12:39:54;27.50;80.10
10419;DHT22;5256;48.728;9.140;2022-07-09T12:42:20;26.90;80.50
10419;DHT22;5256;48.728;9.140;2022-07-09T12:44:47;26.50;81.90
10419;DHT22;5256;48.728;9.140;2022-07-09T12:47:12;26.30;79.90
10419;DHT22;5256;48.728;9.140;2022-07-09T12:49:38;25.80;81.50
10419;DHT22;5256;48.728;9.140;2022-07-09T12:52:04;26.10;82.00
10419;DHT22;5256;48.728;9.140;2022-07-09T12:54:29;26.60;82.30
10419;DHT22;5256;48.728;9.140;2022-07-09T12:56:55;26.40;79.40
10419;DHT22;5256;48.728;9.140;2022-07-09T12:59:21;26.20;80.50
10419;DHT22;5256;48.728;9.140;2022-07-09T13:01:47;26.20;81.70
10419;DHT22;5256;48.728;9.140;2022-07-09T13:04:13;26.40;81.70
10419;DHT22;5256;48.728;9.140;2022-07-09T13:06:43;26.60;80.80
10419;DHT22;5256;48.728;9.140;2022-07-09T13:09:09;26.60;79.90
10419;DHT22;5256;48.728;9.140;2022-07-09T13:11:37;26.20;79.90
10419;DHT22;5256;48.728;9.140;2022-07-09T13:14:03;26.00;79.60
10419;DHT22;5256;48.728;9.140;2022-07-09T13:16:29;25.90;80.50
10419;DHT22;5256;48.728;9.140;2022-07-09T13:18:55;25.90;81.80
10419;DHT22;5256;48.728;9.140;2022-07-09T13:21:21;25.80;81.50
10419;DHT22;5256;48.728;9.140;2022-07-09T13:23:48;25.90;82.00
10419;DHT22;5256;48.728;9.140;2022-07-09T13:26:14;25.80;81.60
10419;DHT22;5256;48.728;9.140;2022-07-09T13:28:40;25.50;80.70
10419;DHT22;5256;48.728;9.140;2022-07-09T13:31:06;25.50;81.50
10419;DHT22;5256;48.728;9.140;2022-07-09T13:33:36;25.80;81.20
10419;DHT22;5256;48.728;9.140;2022-07-09T13:36:03;25.80;81.20
10419;DHT22;5256;48.728;9.140;2022-07-09T13:38:30;26.10;81.40
10419;DHT22;5256;48.728;9.140;2022-07-09T13:40:56;26.20;79.90
10419;DHT22;5256;48.728;9.140;2022-07-09T13:43:22;26.10;80.10
10419;DHT22;5256;48.728;9.140;2022-07-09T13:45:52;26.10;80.80
10419;DHT22;5256;48.728;9.140;2022-07-09T13:48:20;26.20;80.50
10419;DHT22;5256;48.728;9.140;2022-07-09T13:50:45;26.60;80.90
10419;DHT22;5256;48.728;9.140;2022-07-09T13:53:11;26.80;78.90
10419;DHT22;5256;48.728;9.140;2022-07-09T13:55:36;27.40;79.70
10419;DHT22;5256;48.728;9.140;2022-07-09T13:58:02;27.90;78.40
10419;DHT22;5256;48.728;9.140;2022-07-09T14:00:28;28.20;77.50
10419;DHT22;5256;48.728;9.140;2022-07-09T14:02:53;28.10;77.20
10419;DHT22;5256;48.728;9.140;2022-07-09T14:05:19;27.70;77.20
10419;DHT22;5256;48.728;9.140;2022-07-09T14:07:45;27.70;77.90
10419;DHT22;5256;48.728;9.140;2022-07-09T14:10:11;27.70;77.60
10419;DHT22;5256;48.728;9.140;2022-07-09T14:12:36;27.70;77.70
10419;DHT22;5256;48.728;9.140;2022-07-09T14:15:02;27.60;78.40
10419;DHT22;5256;48.728;9.140;2022-07-09T14:17:28;27.70;78.10
10419;DHT22;5256;48.728;9.140;2022-07-09T14:19:54;27.50;78.10
10419;DHT22;5256;48.728;9.140;2022-07-09T14:22:19;27.20;78.50
10419;DHT22;5256;48.728;9.140;2022-07-09T14:24:45;27.00;79.50
10419;DHT22;5256;48.728;9.140;2022-07-09T14:27:11;27.80;78.50
10419;DHT22;5256;48.728;9.140;2022-07-09T14:29:38;28.60;77.10
10419;DHT22;5256;48.728;9.140;2022-07-09T14:32:04;30.00;75.40
10419;DHT22;5256;48.728;9.140;2022-07-09T14:34:30;30.60;74.80
10419;DHT22;5256;48.728;9.140;2022-07-09T14:36:56;30.20;74.00
10419;DHT22;5256;48.728;9.140;2022-07-09T14:39:21;30.10;73.80
10419;DHT22;5256;48.728;9.140;2022-07-09T14:41:47;30.00;73.20
10419;DHT22;5256;48.728;9.140;2022-07-09T14:44:13;30.30;74.30
10419;DHT22;5256;48.728;9.140;2022-07-09T14:46:40;30.50;72.10
10419;DHT22;5256;48.728;9.140;2022-07-09T14:49:06;30.50;72.40
10419;DHT22;5256;48.728;9.140;2022-07-09T14:51:31;30.60;72.80
10419;DHT22;5256;48.728;9.140;2022-07-09T14:53:58;30.40;72.50
10419;DHT22;5256;48.728;9.140;2022-07-09T14:56:24;29.70;73.50
10419;DHT22;5256;48.728;9.140;2022-07-09T14:58:49;29.20;74.40
10419;DHT22;5256;48.728;9.140;2022-07-09T15:01:15;28.80;73.40
10419;DHT22;5256;48.728;9.140;2022-07-09T15:03:41;28.30;72.50
10419;DHT22;5256;48.728;9.140;2022-07-09T15:06:06;28.20;75.00
10419;DHT22;5256;48.728;9.140;2022-07-09T15:08:32;28.50;74.30
10419;DHT22;5256;48.728;9.140;2022-07-09T15:10:58;28.40;75.20
10419;DHT22;5256;48.728;9.140;2022-07-09T15:13:25;28.00;73.80
10419;DHT22;5256;48.728;9.140;2022-07-09T15:15:52;27.60;75.10
10419;DHT22;5256;48.728;9.140;2022-07-09T15:18:18;27.10;77.00
10419;DHT22;5256;48.728;9.140;2022-07-09T15:20:44;26.80;77.80
10419;DHT22;5256;48.728;9.140;2022-07-09T15:23:09;26.60;78.70
10419;DHT22;5256;48.728;9.140;2022-07-09T15:25:36;27.40;78.60
10419;DHT22;5256;48.728;9.140;2022-07-09T15:28:02;27.60;76.80
10419;DHT22;5256;48.728;9.140;2022-07-09T15:30:28;27.20;77.40
10419;DHT22;5256;48.728;9.140;2022-07-09T15:32:53;26.70;77.70
10419;DHT22;5256;48.728;9.140;2022-07-09T15:35:19;26.60;77.60
10419;DHT22;5256;48.728;9.140;2022-07-09T15:37:45;26.60;79.10
10419;DHT22;5256;48.728;9.140;2022-07-09T15:40:11;26.60;79.90
10419;DHT22;5256;48.728;9.140;2022-07-09T15:42:39;26.80;80.60
10419;DHT22;5256;48.728;9.140;2022-07-09T15:45:05;26.70;81.10
10419;DHT22;5256;48.728;9.140;2022-07-09T15:47:31;27.40;79.30
10419;DHT22;5256;48.728;9.140;2022-07-09T15:49:57;27.60;79.00
10419;DHT22;5256;48.728;9.140;2022-07-09T15:52:23;27.80;78.20